Time;durP1;ratioP1;P1;durP2;ratioP2;P2;SDS_P1;SDS_P2;PMS_P1;PMS_P2;Temp;Humidity;BMP_temperature;BMP_pressure;BME280_temperature;BME280_humidity;BME280_pressure;Samples;Min_cycle;Max_cycle;Signal;HPM_P1;HPM_P2
2022/04/22 00:01:24;;;;;;;6.15;4.53;;;11.10;99.90;;;;;;4927441;28;20129;-79
2022/04/22 00:03:50;;;;;;;7.38;4.40;;;11.10;99.90;;;;;;4909052;28;20138;-79
2022/04/22 00:06:16;;;;;;;6.85;4.47;;;11.00;99.90;;;;;;4939528;28;20089;-79
2022/04/22 00:08:42;;;;;;;7.20;4.30;;;11.00;99.90;;;;;;4921795;28;20058;-78
2022/04/22 00:13:54;;;;;;;5.07;4.18;;;10.90;99.90;;;;;;4941928;28;20051;-78
2022/04/22 00:16:21;;;;;;;10.63;4.85;;;10.90;99.90;;;;;;4935506;28;20564;-80
2022/04/22 00:18:47;;;;;;;6.18;4.68;;;10.80;99.90;;;;;;4921359;28;20603;-79
2022/04/22 00:21:12;;;;;;;7.47;4.47;;;10.70;99.90;;;;;;4953705;28;20497;-79
2022/04/22 00:23:38;;;;;;;8.35;4.60;;;10.70;99.90;;;;;;4919709;28;20050;-77
2022/04/22 00:26:04;;;;;;;7.40;3.95;;;10.70;99.90;;;;;;4933809;28;20051;-79
2022/04/22 00:28:30;;;;;;;5.78;4.30;;;10.60;99.90;;;;;;4924272;28;20316;-79
2022/04/22 00:30:55;;;;;;;9.45;4.38;;;10.60;99.90;;;;;;4921658;28;20047;-79
2022/04/22 00:33:22;;;;;;;5.88;4.72;;;10.90;99.90;;;;;;4926059;28;20496;-78
2022/04/22 00:35:48;;;;;;;5.82;4.68;;;10.50;99.90;;;;;;4955171;28;20128;-79
2022/04/22 00:38:14;;;;;;;7.05;4.65;;;10.50;99.90;;;;;;4958109;28;20059;-80
2022/04/22 00:40:40;;;;;;;7.53;4.90;;;10.40;99.90;;;;;;4949417;28;20414;-79
2022/04/22 00:43:21;;;;;;;7.38;4.75;;;10.40;99.90;;;;;;4948180;28;20144;-79
2022/04/22 00:45:47;;;;;;;6.28;4.43;;;10.40;99.90;;;;;;4947904;28;20042;-79
2022/04/22 00:48:15;;;;;;;8.70;4.97;;;10.40;99.90;;;;;;4956037;28;20042;-79
2022/04/22 00:50:41;;;;;;;8.05;4.97;;;10.30;99.90;;;;;;4940096;28;20109;-78
2022/04/22 00:53:08;;;;;;;6.38;4.40;;;10.30;99.90;;;;;;4938097;28;20059;-79
2022/04/22 00:55:36;;;;;;;6.65;4.53;;;10.20;99.90;;;;;;4953492;28;20040;-79
2022/04/22 00:58:03;;;;;;;7.38;5.35;;;10.20;99.90;;;;;;4940898;28;20124;-79
2022/04/22 01:00:29;;;;;;;9.40;4.45;;;10.20;99.90;;;;;;4938230;28;20663;-78
2022/04/22 01:02:55;;;;;;;7.90;4.65;;;10.20;99.90;;;;;;4937188;28;20130;-79
2022/04/22 01:10:53;;;;;;;7.88;4.90;;;10.20;99.90;;;;;;4954329;28;20047;-79
2022/04/22 01:13:19;;;;;;;6.95;4.97;;;10.10;99.90;;;;;;4936077;28;20062;-79
2022/04/22 01:15:46;;;;;;;6.60;4.55;;;10.10;99.90;;;;;;4923199;28;20046;-78
2022/04/22 01:18:16;;;;;;;8.77;4.97;;;10.10;99.90;;;;;;4941693;28;20106;-80
2022/04/22 01:20:41;;;;;;;7.30;4.68;;;10.00;99.90;;;;;;4937403;28;20050;-79
2022/04/22 01:23:07;;;;;;;8.27;4.97;;;10.00;99.90;;;;;;4920556;28;20051;-77
2022/04/22 01:25:33;;;;;;;6.53;4.50;;;10.00;99.90;;;;;;4938448;28;20102;-80
2022/04/22 01:28:00;;;;;;;9.32;4.65;;;9.60;99.90;;;;;;4921013;28;20075;-79
2022/04/22 01:30:26;;;;;;;11.90;5.53;;;9.90;99.90;;;;;;4938498;28;20051;-78
2022/04/22 01:32:54;;;;;;;7.85;4.95;;;9.80;99.90;;;;;;4952998;28;20047;-79
2022/04/22 01:35:21;;;;;;;6.93;4.70;;;9.80;99.90;;;;;;4955655;28;20047;-79
2022/04/22 01:37:47;;;;;;;8.05;5.30;;;9.80;99.90;;;;;;4938825;28;20055;-79
2022/04/22 01:40:14;;;;;;;9.13;5.47;;;9.80;99.90;;;;;;4953871;28;20055;-79
2022/04/22 01:42:41;;;;;;;10.98;5.13;;;9.70;99.90;;;;;;4935786;28;20121;-79
2022/04/22 01:45:07;;;;;;;9.27;5.70;;;9.70;99.90;;;;;;4936279;28;20077;-79
2022/04/22 01:47:34;;;;;;;8.30;5.25;;;9.70;99.90;;;;;;4952532;28;20050;-78
2022/04/22 01:50:00;;;;;;;7.13;5.75;;;9.70;99.90;;;;;;4937724;28;20145;-79
2022/04/22 01:52:26;;;;;;;9.18;5.85;;;9.50;99.90;;;;;;4937219;28;20071;-79
2022/04/22 01:54:54;;;;;;;7.97;5.13;;;9.60;99.90;;;;;;4935339;28;20469;-79
2022/04/22 01:57:20;;;;;;;8.38;5.30;;;9.60;99.90;;;;;;4937455;28;20137;-79
2022/04/22 01:59:48;;;;;;;8.55;5.45;;;9.50;99.90;;;;;;4933217;28;20154;-78
2022/04/22 02:02:15;;;;;;;7.80;6.00;;;9.50;99.90;;;;;;4921618;28;21035;-79
2022/04/22 02:04:41;;;;;;;8.88;5.22;;;9.50;99.90;;;;;;4937300;28;20161;-79
2022/04/22 02:07:07;;;;;;;8.25;5.25;;;9.50;99.90;;;;;;4938718;28;20047;-79
2022/04/22 02:09:33;;;;;;;7.18;4.55;;;9.50;99.90;;;;;;4952528;28;20042;-79
2022/04/22 02:11:59;;;;;;;7.75;5.60;;;9.50;99.90;;;;;;4941800;28;20066;-79
2022/04/22 02:14:25;;;;;;;8.27;5.32;;;9.40;99.90;;;;;;4935770;28;20495;-79
2022/04/22 02:16:52;;;;;;;9.55;5.68;;;9.40;99.90;;;;;;4936829;28;20054;-79
2022/04/22 02:19:18;;;;;;;7.72;5.60;;;9.20;99.90;;;;;;4939960;28;20054;-80
2022/04/22 02:21:44;;;;;;;10.63;5.53;;;9.40;99.90;;;;;;4936644;28;20399;-80
2022/04/22 02:24:10;;;;;;;8.35;4.90;;;9.30;99.90;;;;;;4939013;28;20116;-80
2022/04/22 02:29:21;;;;;;;9.95;5.68;;;9.40;99.90;;;;;;4951764;28;20047;-80
2022/04/22 02:31:52;;;;;;;10.00;5.57;;;9.30;99.90;;;;;;4926271;28;20050;-79
2022/04/22 02:34:19;;;;;;;7.20;4.95;;;9.30;99.90;;;;;;4952811;28;20066;-81
2022/04/22 02:36:51;;;;;;;9.05;5.72;;;9.30;99.90;;;;;;4942029;28;20058;-79
2022/04/22 02:39:18;;;;;;;9.88;6.05;;;9.10;99.90;;;;;;4936246;28;20066;-81
2022/04/22 02:47:14;;;;;;;8.88;5.50;;;9.30;99.90;;;;;;4942402;28;20062;-79
2022/04/22 02:49:44;;;;;;;9.48;5.20;;;9.20;99.90;;;;;;4941290;28;20094;-79
2022/04/22 02:52:15;;;;;;;8.65;5.40;;;9.20;99.90;;;;;;4924979;28;20054;-80
2022/04/22 02:54:41;;;;;;;11.85;5.45;;;9.20;99.90;;;;;;4932862;28;20318;-79
2022/04/22 02:57:08;;;;;;;8.05;5.32;;;9.20;99.90;;;;;;4935066;28;20058;-79
2022/04/22 02:59:37;;;;;;;11.30;5.80;;;9.20;99.90;;;;;;4950458;28;20575;-80
2022/04/22 03:02:03;;;;;;;7.97;4.93;;;9.20;99.90;;;;;;4937002;28;20047;-79
2022/04/22 03:04:29;;;;;;;8.95;5.80;;;9.10;99.90;;;;;;4942862;28;20078;-78
2022/04/22 03:06:55;;;;;;;7.40;5.40;;;9.10;99.90;;;;;;4941544;28;20089;-79
2022/04/22 03:09:21;;;;;;;10.48;5.90;;;9.10;99.90;;;;;;4937036;28;20049;-79
2022/04/22 03:11:47;;;;;;;9.70;5.53;;;9.10;99.90;;;;;;4935944;28;20073;-78
2022/04/22 03:14:13;;;;;;;8.13;5.85;;;9.10;99.90;;;;;;4953336;28;20488;-79
2022/04/22 03:16:40;;;;;;;8.68;5.50;;;9.10;99.90;;;;;;4904291;28;20081;-79
2022/04/22 03:19:07;;;;;;;10.10;5.85;;;9.00;99.90;;;;;;4936111;28;20063;-78
2022/04/22 03:21:35;;;;;;;8.50;5.97;;;9.10;99.90;;;;;;4953245;28;20043;-78
2022/04/22 03:24:01;;;;;;;10.00;5.60;;;9.00;99.90;;;;;;4925340;28;20047;-79
2022/04/22 03:26:27;;;;;;;8.80;5.72;;;9.00;99.90;;;;;;4934918;28;20514;-78
2022/04/22 03:28:53;;;;;;;7.70;5.07;;;9.00;99.90;;;;;;4940693;28;20053;-78
2022/04/22 03:31:19;;;;;;;8.48;5.38;;;9.00;99.90;;;;;;4925888;28;20054;-77
2022/04/22 03:33:45;;;;;;;10.15;5.30;;;9.00;99.90;;;;;;4952407;28;20039;-80
2022/04/22 03:36:12;;;;;;;7.38;4.80;;;8.90;99.90;;;;;;4916410;28;20081;-78
2022/04/22 03:38:38;;;;;;;9.25;5.18;;;8.90;99.90;;;;;;4927945;28;20060;-79
2022/04/22 03:41:04;;;;;;;8.00;4.93;;;8.90;99.90;;;;;;4941351;28;20059;-77
2022/04/22 03:43:29;;;;;;;9.27;4.88;;;8.80;99.90;;;;;;4946066;28;20416;-79
2022/04/22 03:45:55;;;;;;;7.40;4.50;;;8.80;99.90;;;;;;4935686;28;20485;-79
2022/04/22 03:48:21;;;;;;;8.65;5.05;;;8.80;99.90;;;;;;4920182;28;20043;-79
2022/04/22 03:50:47;;;;;;;7.35;4.68;;;8.80;99.90;;;;;;4927626;28;20050;-79
2022/04/22 03:53:13;;;;;;;7.85;4.50;;;8.70;99.90;;;;;;4953340;28;20043;-79
2022/04/22 03:55:43;;;;;;;7.22;4.43;;;8.80;99.90;;;;;;4934752;28;20050;-80
2022/04/22 03:58:13;;;;;;;8.50;4.97;;;8.60;99.90;;;;;;4933690;28;20044;-79
2022/04/22 04:00:41;;;;;;;7.95;4.75;;;8.70;99.90;;;;;;4933812;28;20044;-79
2022/04/22 04:03:11;;;;;;;6.78;4.22;;;8.70;99.90;;;;;;4935622;28;20062;-77
2022/04/22 04:05:38;;;;;;;7.57;4.85;;;8.60;99.90;;;;;;4950175;28;20065;-79
2022/04/22 04:08:05;;;;;;;9.75;4.15;;;8.60;99.90;;;;;;4923956;28;20067;-78
2022/04/22 04:16:01;;;;;;;5.93;4.13;;;8.60;99.90;;;;;;4954171;28;20050;-79
2022/04/22 04:18:35;;;;;;;5.65;4.00;;;8.60;99.90;;;;;;4938457;28;20047;-80
2022/04/22 04:23:48;;;;;;;7.88;4.38;;;8.50;99.90;;;;;;4955822;28;20058;-79
2022/04/22 04:26:15;;;;;;;7.38;4.50;;;8.50;99.90;;;;;;4922317;28;20086;-80
2022/04/22 04:28:42;;;;;;;5.60;3.53;;;8.50;99.90;;;;;;4937831;28;20503;-79
2022/04/22 04:31:11;;;;;;;7.00;4.10;;;8.40;99.90;;;;;;4927852;28;20069;-80
2022/04/22 04:33:37;;;;;;;7.22;4.05;;;8.40;99.90;;;;;;4937919;28;20047;-79
2022/04/22 04:36:04;;;;;;;7.05;4.10;;;8.40;99.90;;;;;;4924301;28;20051;-79
2022/04/22 04:38:30;;;;;;;5.93;3.45;;;8.40;99.90;;;;;;4937348;28;20065;-79
2022/04/22 04:40:57;;;;;;;7.75;4.20;;;8.40;99.90;;;;;;4938570;28;20141;-79
2022/04/22 04:43:23;;;;;;;6.43;3.70;;;8.40;99.90;;;;;;4925968;28;20148;-79
2022/04/22 04:45:52;;;;;;;6.82;3.80;;;8.40;99.90;;;;;;4952019;28;20054;-79
2022/04/22 04:48:19;;;;;;;5.78;3.28;;;8.30;99.90;;;;;;4937764;28;20057;-82
2022/04/22 04:50:51;;;;;;;7.28;4.35;;;8.30;99.90;;;;;;4936949;28;20047;-81
2022/04/22 04:53:17;;;;;;;6.00;3.58;;;8.30;99.90;;;;;;4938077;28;20043;-79
2022/04/22 04:55:44;;;;;;;6.30;3.58;;;8.30;99.90;;;;;;4941086;28;20043;-78
2022/04/22 04:58:10;;;;;;;5.57;3.58;;;8.30;99.90;;;;;;4952469;28;20178;-79
2022/04/22 05:00:36;;;;;;;5.93;3.70;;;8.30;99.90;;;;;;4937756;28;20160;-79
2022/04/22 05:03:02;;;;;;;6.32;3.50;;;8.30;99.90;;;;;;4925921;28;20145;-78
2022/04/22 05:05:29;;;;;;;7.47;3.85;;;8.30;99.90;;;;;;4921706;28;20066;-80
2022/04/22 05:07:57;;;;;;;5.70;3.60;;;8.30;99.90;;;;;;4935973;28;20051;-79
2022/04/22 05:10:26;;;;;;;6.57;3.00;;;7.10;99.90;;;;;;4926910;28;20054;-78
2022/04/22 05:12:52;;;;;;;7.40;3.40;;;8.30;99.90;;;;;;4950384;28;20043;-78
2022/04/22 05:15:19;;;;;;;5.57;3.60;;;8.30;99.90;;;;;;4938920;28;20504;-79
2022/04/22 05:17:46;;;;;;;6.97;3.60;;;8.30;99.90;;;;;;4934725;28;20054;-78
2022/04/22 05:20:13;;;;;;;6.05;3.33;;;8.30;99.90;;;;;;4924951;28;20492;-79
2022/04/22 05:22:40;;;;;;;4.40;3.00;;;8.30;99.90;;;;;;4935979;28;20054;-79
2022/04/22 05:25:08;;;;;;;5.00;3.47;;;8.30;99.90;;;;;;4926355;28;20051;-78
2022/04/22 05:27:35;;;;;;;4.68;3.00;;;8.30;99.90;;;;;;4934255;28;20055;-79
2022/04/22 05:32:49;;;;;;;4.90;3.60;;;8.30;99.90;;;;;;4939132;28;20047;-78
2022/04/22 05:35:16;;;;;;;4.93;2.88;;;8.30;99.90;;;;;;4925394;28;20569;-79
2022/04/22 05:37:48;;;;;;;5.60;3.20;;;8.30;99.90;;;;;;4935394;28;20067;-79
2022/04/22 05:40:17;;;;;;;5.65;3.20;;;8.40;99.90;;;;;;4938630;28;20089;-79
2022/04/22 05:42:44;;;;;;;5.28;3.05;;;8.40;99.90;;;;;;4908766;28;20539;-79
2022/04/22 05:45:10;;;;;;;6.32;3.00;;;8.40;99.90;;;;;;4938930;28;20043;-79
2022/04/22 05:47:37;;;;;;;5.22;3.15;;;8.40;99.90;;;;;;4940626;28;20074;-79
2022/04/22 05:50:05;;;;;;;5.10;3.20;;;8.50;99.90;;;;;;4943797;28;20050;-79
2022/04/22 05:52:35;;;;;;;5.47;3.28;;;8.50;99.90;;;;;;4934010;28;20090;-80
2022/04/22 05:55:02;;;;;;;4.97;2.80;;;8.50;99.90;;;;;;4954060;28;20075;-80
2022/04/22 05:57:32;;;;;;;5.18;2.85;;;8.50;99.90;;;;;;4953088;28;20134;-79
2022/04/22 05:59:59;;;;;;;5.28;2.90;;;8.50;99.90;;;;;;4912074;28;20045;-80
2022/04/22 06:02:26;;;;;;;5.30;2.75;;;8.50;99.90;;;;;;4936428;28;20074;-79
2022/04/22 06:04:52;;;;;;;4.00;2.67;;;8.60;99.90;;;;;;4952397;28;20059;-79
2022/04/22 06:07:19;;;;;;;4.68;2.47;;;8.60;99.90;;;;;;4925435;28;20114;-79
2022/04/22 06:12:30;;;;;;;5.43;2.97;;;8.80;99.90;;;;;;4938639;28;20579;-80
2022/04/22 06:14:59;;;;;;;5.70;2.58;;;8.80;99.90;;;;;;4933149;28;20138;-79
2022/04/22 06:17:27;;;;;;;4.55;2.30;;;8.80;99.90;;;;;;4939680;28;20051;-80
2022/04/22 06:19:53;;;;;;;3.50;2.40;;;8.90;99.90;;;;;;4918368;28;20681;-84
2022/04/22 06:22:19;;;;;;;3.80;2.42;;;9.00;99.90;;;;;;4920780;28;20212;-82
2022/04/22 06:24:45;;;;;;;4.28;2.47;;;9.50;99.90;;;;;;4935969;28;20085;-80
2022/04/22 06:27:10;;;;;;;4.90;2.47;;;9.20;99.90;;;;;;4929527;28;20047;-81
2022/04/22 06:29:37;;;;;;;5.78;2.50;;;9.20;99.90;;;;;;4920284;28;20130;-80
2022/04/22 06:32:04;;;;;;;4.85;2.63;;;9.30;99.90;;;;;;4910144;28;20101;-82
2022/04/22 06:34:30;;;;;;;4.22;2.25;;;9.40;99.90;;;;;;4926604;28;20085;-80
2022/04/22 06:36:57;;;;;;;3.28;2.25;;;9.60;99.90;;;;;;4938336;28;20070;-81
2022/04/22 06:39:23;;;;;;;3.83;2.35;;;9.60;99.90;;;;;;4934819;28;20050;-80
2022/04/22 06:47:33;;;;;;;3.42;2.10;;;10.10;99.90;;;;;;4955382;28;20039;-80
2022/04/22 06:49:59;;;;;;;4.78;2.20;;;10.80;99.90;;;;;;4943427;28;20148;-80
2022/04/22 06:52:25;;;;;;;3.90;2.30;;;10.40;99.90;;;;;;4925428;28;20449;-81
2022/04/22 06:54:51;;;;;;;4.63;2.05;;;10.60;99.90;;;;;;4926900;28;20051;-81
2022/04/22 06:57:19;;;;;;;4.07;2.20;;;10.70;99.90;;;;;;4940757;28;20085;-80
2022/04/22 06:59:45;;;;;;;4.40;1.92;;;10.80;99.90;;;;;;4950817;28;20097;-80
2022/04/22 07:02:12;;;;;;;6.47;2.08;;;10.70;99.90;;;;;;4935486;28;20404;-80
2022/04/22 07:04:38;;;;;;;4.70;2.03;;;11.10;99.90;;;;;;4937536;28;20051;-81
2022/04/22 07:07:04;;;;;;;3.58;1.90;;;11.30;99.90;;;;;;4940011;28;20047;-82
2022/04/22 07:09:30;;;;;;;3.38;1.95;;;11.50;99.90;;;;;;4921507;28;20054;-81
2022/04/22 07:11:59;;;;;;;3.53;1.70;;;11.80;99.90;;;;;;4935116;28;20272;-81
2022/04/22 07:14:27;;;;;;;3.33;1.98;;;11.80;99.90;;;;;;4935726;28;20053;-80
2022/04/22 07:16:53;;;;;;;4.15;1.98;;;11.90;99.90;;;;;;4951595;28;20051;-82
2022/04/22 07:19:18;;;;;;;3.78;2.10;;;12.00;99.90;;;;;;4935301;28;20102;-74
2022/04/22 07:21:44;;;;;;;3.63;2.10;;;12.20;99.90;;;;;;4921145;28;20078;-79
2022/04/22 07:24:11;;;;;;;3.50;1.63;;;12.30;99.90;;;;;;4948230;28;20086;-79
2022/04/22 07:26:40;;;;;;;3.75;2.00;;;12.40;99.90;;;;;;4901253;28;20127;-80
2022/04/22 07:29:12;;;;;;;3.10;1.83;;;12.60;99.90;;;;;;4934454;28;20126;-80
2022/04/22 07:31:38;;;;;;;4.47;1.80;;;12.80;99.90;;;;;;4950743;28;20050;-83
2022/04/22 07:34:03;;;;;;;2.80;1.90;;;12.40;99.90;;;;;;4909653;28;20137;-80
2022/04/22 07:36:30;;;;;;;4.13;1.70;;;13.20;99.90;;;;;;4934870;28;20122;-80
2022/04/22 07:38:56;;;;;;;5.10;2.03;;;13.40;99.90;;;;;;4950552;28;20063;-81
2022/04/22 07:41:27;;;;;;;6.18;1.92;;;13.60;99.90;;;;;;4954068;28;20076;-80
2022/04/22 07:46:47;;;;;;;2.97;1.60;;;14.20;99.90;;;;;;4943150;28;20050;-80
2022/04/22 07:49:13;;;;;;;3.30;1.60;;;14.40;99.90;;;;;;4941654;28;20050;-80
2022/04/22 07:51:40;;;;;;;3.70;1.80;;;14.60;99.90;;;;;;4957191;28;20078;-80
2022/04/22 07:54:12;;;;;;;4.00;1.77;;;14.80;99.90;;;;;;4912366;28;20130;-80
2022/04/22 07:56:39;;;;;;;3.47;1.83;;;14.90;99.90;;;;;;4940714;28;20392;-79
2022/04/22 07:59:05;;;;;;;5.20;1.85;;;15.00;99.90;;;;;;4957359;28;20058;-80
2022/04/22 08:01:30;;;;;;;2.72;1.50;;;15.10;99.90;;;;;;4940781;28;20556;-80
2022/04/22 08:03:58;;;;;;;3.88;1.90;;;15.30;99.90;;;;;;4945551;28;20397;-81
2022/04/22 08:06:26;;;;;;;4.28;1.70;;;15.40;99.90;;;;;;4930137;28;20518;-80
2022/04/22 08:08:52;;;;;;;3.17;1.75;;;15.60;99.90;;;;;;4949536;28;20042;-80
2022/04/22 08:11:20;;;;;;;4.60;1.40;;;15.80;99.90;;;;;;4932248;28;20053;-80
2022/04/22 08:13:46;;;;;;;2.90;1.70;;;16.00;99.90;;;;;;4947386;28;20058;-80
2022/04/22 08:16:13;;;;;;;3.92;1.92;;;16.10;99.90;;;;;;4944137;28;20097;-79
2022/04/22 08:18:40;;;;;;;3.75;1.75;;;16.30;99.90;;;;;;4955469;28;22058;-81
2022/04/22 08:21:08;;;;;;;4.72;1.60;;;16.50;99.90;;;;;;4956162;28;20089;-81
2022/04/22 08:23:34;;;;;;;5.03;1.80;;;16.10;99.90;;;;;;4925836;28;20062;-79
2022/04/22 08:26:00;;;;;;;3.88;1.58;;;16.80;99.90;;;;;;4942439;28;20610;-81
2022/04/22 08:28:26;;;;;;;4.97;2.13;;;16.90;99.90;;;;;;4925295;28;20497;-80
2022/04/22 08:30:52;;;;;;;3.40;1.83;;;17.10;99.90;;;;;;4928850;28;20050;-81
2022/04/22 08:33:18;;;;;;;3.75;1.70;;;17.30;99.90;;;;;;4957391;28;20076;-80
2022/04/22 08:35:43;;;;;;;2.33;1.60;;;17.40;99.90;;;;;;4924973;28;20074;-81
2022/04/22 08:38:10;;;;;;;3.38;1.60;;;16.90;99.90;;;;;;4955525;28;20067;-82
2022/04/22 08:40:39;;;;;;;4.28;2.00;;;17.60;99.90;;;;;;4930031;28;20051;-81
2022/04/22 08:43:06;;;;;;;4.30;1.70;;;17.90;99.90;;;;;;4924456;28;20052;-81
2022/04/22 08:45:33;;;;;;;4.40;2.00;;;18.00;99.90;;;;;;4940039;28;20043;-80
2022/04/22 08:50:52;;;;;;;3.70;1.90;;;18.30;99.90;;;;;;4957019;28;20105;-81
2022/04/22 08:53:23;;;;;;;4.05;2.00;;;18.50;99.90;;;;;;4940231;28;20067;-81
2022/04/22 08:55:56;;;;;;;3.20;1.98;;;18.50;99.90;;;;;;4955234;28;20070;-81
2022/04/22 08:58:27;;;;;;;4.00;1.83;;;18.70;99.90;;;;;;4954968;28;20054;-80
2022/04/22 09:00:57;;;;;;;5.00;1.90;;;18.80;99.80;;;;;;4938847;28;20484;-79
2022/04/22 09:03:27;;;;;;;3.45;1.85;;;18.90;99.60;;;;;;4939395;28;20043;-80
2022/04/22 09:05:54;;;;;;;4.13;1.88;;;19.10;99.40;;;;;;4926970;28;20481;-79
2022/04/22 09:08:21;;;;;;;4.82;2.10;;;18.50;99.20;;;;;;4942674;28;20061;-79
2022/04/22 09:10:54;;;;;;;4.82;1.90;;;19.40;99.10;;;;;;4927999;28;20059;-79
2022/04/22 09:13:27;;;;;;;4.32;1.75;;;19.50;98.40;;;;;;4930657;28;20051;-79
2022/04/22 09:15:54;;;;;;;4.35;1.70;;;19.50;98.20;;;;;;4919614;28;20044;-79
2022/04/22 09:18:24;;;;;;;3.22;1.92;;;19.60;98.10;;;;;;4945169;29;20079;-78
2022/04/22 09:20:50;;;;;;;6.55;1.83;;;19.70;97.40;;;;;;4946296;28;20401;-79
2022/04/22 09:23:23;;;;;;;3.55;1.70;;;19.80;97.60;;;;;;4929226;28;20142;-79
2022/04/22 09:25:49;;;;;;;3.83;1.65;;;20.00;97.10;;;;;;4946358;28;20043;-79
2022/04/22 09:28:15;;;;;;;4.95;1.98;;;20.10;97.00;;;;;;4948449;28;20058;-79
2022/04/22 09:30:41;;;;;;;3.38;1.77;;;20.10;96.30;;;;;;4926592;28;20504;-78
2022/04/22 09:33:12;;;;;;;3.42;1.85;;;20.10;96.00;;;;;;4963049;28;20054;-78
2022/04/22 09:42:38;;;;;;;3.03;1.70;;;20.30;96.00;;;;;;4942575;28;20097;-79
2022/04/22 09:43:52;;;;;;;3.10;1.60;;;20.80;95.20;;;;;;4971747;28;20042;-79
2022/04/22 09:46:27;;;;;;;4.40;1.70;;;20.80;94.20;;;;;;4925356;28;20056;-80
2022/04/22 09:48:54;;;;;;;3.05;1.83;;;21.00;93.80;;;;;;4945305;28;20047;-79
2022/04/22 09:51:22;;;;;;;6.13;1.95;;;21.00;93.70;;;;;;4964131;28;20051;-80
2022/04/22 09:54:09;;;;;;;2.92;1.60;;;21.20;93.60;;;;;;4960023;28;20106;-81
2022/04/22 09:56:37;;;;;;;3.17;1.65;;;21.30;92.40;;;;;;4947566;28;20050;-79
2022/04/22 09:59:23;;;;;;;3.35;1.42;;;21.50;92.60;;;;;;4930025;28;20058;-80
2022/04/22 10:01:50;;;;;;;2.67;1.55;;;21.70;90.50;;;;;;4945475;28;20051;-80
2022/04/22 10:04:22;;;;;;;3.05;1.40;;;21.60;91.70;;;;;;4929853;28;20042;-79
2022/04/22 10:06:49;;;;;;;2.47;1.27;;;21.60;90.50;;;;;;4944140;28;20492;-80
2022/04/22 10:09:19;;;;;;;2.65;1.77;;;21.80;90.80;;;;;;4927780;28;20139;-79
2022/04/22 10:11:52;;;;;;;6.25;2.17;;;21.90;90.30;;;;;;4940566;28;20047;-80
2022/04/22 10:14:38;;;;;;;3.08;1.67;;;22.00;90.60;;;;;;4943218;28;20146;-81
2022/04/22 10:17:05;;;;;;;3.80;1.40;;;22.30;89.00;;;;;;4927246;29;20055;-79
2022/04/22 10:19:35;;;;;;;3.72;1.55;;;22.40;89.50;;;;;;4951551;28;20046;-80
2022/04/22 10:22:02;;;;;;;3.00;1.63;;;22.60;88.30;;;;;;4951938;28;20053;-80
2022/04/22 10:24:31;;;;;;;4.00;1.60;;;22.80;87.70;;;;;;4960408;28;20057;-79
2022/04/22 10:27:02;;;;;;;4.85;1.77;;;22.90;86.40;;;;;;4944496;28;20990;-79
2022/04/22 10:29:30;;;;;;;5.03;2.28;;;23.10;85.10;;;;;;4958033;28;20058;-79
2022/04/22 10:31:56;;;;;;;4.47;1.88;;;23.10;84.30;;;;;;4941946;28;20412;-79
2022/04/22 10:34:38;;;;;;;4.28;1.70;;;23.20;83.70;;;;;;4966803;28;20111;-80
2022/04/22 10:37:04;;;;;;;5.22;1.90;;;23.30;82.50;;;;;;4940951;28;20062;-80
2022/04/22 10:39:34;;;;;;;6.43;1.90;;;23.30;82.30;;;;;;4957384;28;20047;-82
2022/04/22 10:42:00;;;;;;;3.72;1.70;;;23.20;78.40;;;;;;4940293;28;20043;-82
2022/04/22 10:47:14;;;;;;;5.95;1.88;;;23.20;81.40;;;;;;4942364;28;20043;-81
2022/04/22 10:49:42;;;;;;;7.75;1.80;;;23.30;80.90;;;;;;4943246;28;20069;-83
2022/04/22 10:52:18;;;;;;;4.30;1.73;;;23.40;80.50;;;;;;4916232;28;20089;-81
2022/04/22 10:54:59;;;;;;;5.95;2.45;;;23.40;79.40;;;;;;4927697;28;20074;-81
2022/04/22 10:57:29;;;;;;;5.43;2.13;;;23.50;78.10;;;;;;4926568;28;20075;-82
2022/04/22 11:00:15;;;;;;;5.43;1.80;;;23.30;79.10;;;;;;4942089;28;20523;-81
2022/04/22 11:02:42;;;;;;;5.72;2.20;;;23.40;77.90;;;;;;4938879;28;20059;-81
2022/04/22 11:05:19;;;;;;;5.47;2.00;;;23.50;79.70;;;;;;4940508;28;20568;-81
2022/04/22 11:07:56;;;;;;;6.30;2.00;;;23.60;77.50;;;;;;4956352;28;20492;-83
2022/04/22 11:10:53;;;;;;;4.68;2.17;;;23.60;78.10;;;;;;4941589;28;20536;-81
2022/04/22 11:13:36;;;;;;;7.45;2.03;;;23.60;78.30;;;;;;4942463;28;20054;-81
2022/04/22 11:16:22;;;;;;;6.45;2.00;;;23.20;75.70;;;;;;4940007;28;20505;-81
2022/04/22 11:19:26;;;;;;;4.75;1.70;;;23.50;77.50;;;;;;4937804;28;20058;-82
2022/04/22 11:21:55;;;;;;;5.90;2.72;;;23.60;76.80;;;;;;4959433;28;20047;-81
2022/04/22 11:24:34;;;;;;;4.07;2.00;;;23.60;77.40;;;;;;4941736;28;20515;-80
2022/04/22 11:27:03;;;;;;;5.18;1.98;;;23.40;75.30;;;;;;4958415;28;20055;-80
2022/04/22 11:29:29;;;;;;;4.00;1.98;;;23.40;77.00;;;;;;4943235;28;20058;-81
2022/04/22 11:32:16;;;;;;;4.60;1.77;;;23.40;77.00;;;;;;4912049;28;20064;-80
2022/04/22 11:34:51;;;;;;;5.50;1.90;;;23.30;76.50;;;;;;4942722;28;20043;-81
2022/04/22 11:37:19;;;;;;;5.00;2.20;;;23.00;76.60;;;;;;4927096;28;20095;-81
2022/04/22 11:39:49;;;;;;;5.10;2.38;;;23.30;76.60;;;;;;4942506;28;20055;-81
2022/04/22 11:42:17;;;;;;;8.27;2.97;;;23.20;75.60;;;;;;4941119;28;20047;-81
2022/04/22 11:45:09;;;;;;;4.47;2.30;;;23.30;76.30;;;;;;4940831;28;20445;-83
2022/04/22 11:47:38;;;;;;;4.50;2.38;;;23.40;75.70;;;;;;4957050;28;20523;-80
2022/04/22 11:50:04;;;;;;;5.45;2.10;;;23.10;76.00;;;;;;4941552;28;20508;-83
2022/04/22 11:52:30;;;;;;;6.20;2.53;;;23.40;76.50;;;;;;4958201;28;20083;-81
2022/04/22 11:55:05;;;;;;;5.53;2.63;;;23.40;76.10;;;;;;4941734;28;20097;-81
2022/04/22 11:57:37;;;;;;;10.93;2.42;;;23.40;75.30;;;;;;4958394;28;20385;-80
2022/04/22 12:05:52;;;;;;;5.83;2.63;;;23.80;75.70;;;;;;4958314;28;20043;-80
2022/04/22 12:08:19;;;;;;;7.85;2.40;;;23.70;75.00;;;;;;4923886;28;20062;-81
2022/04/22 12:10:48;;;;;;;8.82;2.83;;;23.70;75.80;;;;;;4956443;28;20098;-81
2022/04/22 12:13:15;;;;;;;5.22;2.53;;;23.60;75.40;;;;;;4925810;28;20125;-81
2022/04/22 12:15:46;;;;;;;7.95;3.03;;;23.70;75.70;;;;;;4927558;28;20039;-81
2022/04/22 12:18:34;;;;;;;6.53;2.88;;;23.70;75.50;;;;;;4941870;28;20130;-81
2022/04/22 12:21:01;;;;;;;4.45;2.50;;;23.80;75.90;;;;;;4955979;28;20051;-81
2022/04/22 12:23:42;;;;;;;5.60;2.47;;;23.70;76.30;;;;;;4942083;28;20059;-81
2022/04/22 12:26:22;;;;;;;7.18;3.00;;;23.80;76.40;;;;;;4941404;28;20047;-80
2022/04/22 12:29:14;;;;;;;6.72;2.85;;;24.00;76.60;;;;;;4929757;28;20078;-82
2022/04/22 12:31:45;;;;;;;3.85;2.67;;;24.10;75.70;;;;;;4930520;28;20050;-81
2022/04/22 12:34:12;;;;;;;8.38;2.90;;;24.10;76.30;;;;;;4942916;28;20098;-84
2022/04/22 12:36:52;;;;;;;6.78;2.78;;;24.10;76.00;;;;;;4958862;28;20047;-80
2022/04/22 12:39:38;;;;;;;4.20;2.72;;;24.30;75.70;;;;;;4931903;28;20063;-81
2022/04/22 12:42:16;;;;;;;5.72;3.10;;;24.50;75.50;;;;;;4971169;28;20093;-81
2022/04/22 12:52:08;;;;;;;5.57;2.72;;;24.60;75.30;;;;;;4939328;28;20049;-81
2022/04/22 12:53:27;;;;;;;;;;;24.40;75.20;;;;;;4963505;28;20043;-79
2022/04/22 12:56:07;;;;;;;8.05;3.08;;;24.30;74.50;;;;;;4943837;28;19954;-79
2022/04/22 12:58:48;;;;;;;4.30;3.00;;;24.10;75.00;;;;;;4945365;28;20042;-81
2022/04/22 13:01:24;;;;;;;5.47;2.90;;;24.10;75.80;;;;;;4943760;28;20050;-82
2022/04/22 13:03:50;;;;;;;5.28;2.80;;;24.10;75.80;;;;;;4945407;28;20054;-81
2022/04/22 13:06:38;;;;;;;7.68;3.15;;;24.10;75.70;;;;;;4926240;28;20188;-82
2022/04/22 13:09:05;;;;;;;7.85;3.40;;;24.30;74.80;;;;;;4959492;28;20125;-82
2022/04/22 13:11:31;;;;;;;6.28;3.17;;;24.20;75.20;;;;;;4941713;28;20058;-82
2022/04/22 13:13:57;;;;;;;3.90;2.33;;;24.20;75.40;;;;;;4915795;28;20058;-84
2022/04/22 13:16:23;;;;;;;5.75;3.10;;;24.20;75.80;;;;;;4912081;28;20043;-81
2022/04/22 13:18:49;;;;;;;7.63;3.20;;;24.30;75.80;;;;;;4927293;28;20047;-81
2022/04/22 13:21:15;;;;;;;5.05;3.20;;;24.40;75.50;;;;;;4941413;28;20065;-81
2022/04/22 13:23:40;;;;;;;5.63;3.10;;;24.40;75.20;;;;;;4942999;28;20130;-81
2022/04/22 13:26:06;;;;;;;6.72;3.38;;;24.40;75.50;;;;;;4942112;28;20111;-82
2022/04/22 13:28:32;;;;;;;9.88;3.13;;;24.50;74.80;;;;;;4943561;28;20122;-81
2022/04/22 13:30:58;;;;;;;8.70;3.50;;;24.50;74.80;;;;;;4942316;28;20130;-80
2022/04/22 13:33:24;;;;;;;7.05;2.78;;;24.60;74.60;;;;;;4929066;28;20191;-80
2022/04/22 13:35:49;;;;;;;6.05;3.20;;;24.50;74.80;;;;;;4941364;28;20130;-82
2022/04/22 13:38:16;;;;;;;4.13;3.08;;;24.50;75.00;;;;;;4913127;28;20063;-81
2022/04/22 13:40:42;;;;;;;5.85;3.13;;;24.50;74.80;;;;;;4959528;28;20055;-81
2022/04/22 13:43:08;;;;;;;5.43;3.30;;;24.40;74.70;;;;;;4943598;28;20583;-82
2022/04/22 13:53:46;;;;;;;6.90;3.30;;;24.10;74.90;;;;;;4959141;28;20129;-81
2022/04/22 13:56:12;;;;;;;6.10;3.35;;;24.20;75.70;;;;;;4925289;28;20046;-80
2022/04/22 13:58:39;;;;;;;7.72;3.28;;;24.30;75.50;;;;;;4929917;28;20038;-81
2022/04/22 14:01:05;;;;;;;6.18;3.00;;;24.40;75.20;;;;;;4931316;28;20093;-81
2022/04/22 14:03:31;;;;;;;6.80;3.80;;;24.40;75.00;;;;;;4943369;28;20061;-80
2022/04/22 14:05:58;;;;;;;5.43;3.45;;;24.50;74.80;;;;;;4930756;28;20105;-80
2022/04/22 14:08:24;;;;;;;5.97;3.50;;;24.60;74.80;;;;;;4913996;28;20038;-78